createdAt,value
2017-05-31T00:00:33.330Z,24.77
2017-05-31T00:03:02.314Z,26.92
2017-05-31T00:05:31.329Z,27.02
2017-05-31T00:08:00.316Z,24.28
2017-05-31T00:10:29.325Z,28.02
2017-05-31T00:12:58.347Z,27.55
2017-05-31T00:15:27.347Z,24.93
2017-05-31T00:17:56.334Z,24.32
2017-05-31T00:20:25.374Z,26.85
2017-05-31T00:22:54.360Z,24.33
2017-05-31T00:25:23.355Z,23.37
2017-05-31T00:27:52.390Z,24.80
2017-05-31T00:30:21.375Z,28.18
2017-05-31T00:32:50.380Z,25.13
2017-05-31T00:35:19.415Z,25.93
2017-05-31T00:37:48.437Z,26.72
2017-05-31T00:40:17.438Z,27.65
2017-05-31T00:42:46.478Z,29.38
2017-05-31T00:45:15.480Z,29.33
2017-05-31T00:47:44.481Z,24.65
2017-05-31T00:50:13.509Z,27.37
2017-05-31T00:52:42.494Z,30.03
2017-05-31T00:55:11.482Z,23.75
2017-05-31T00:57:40.489Z,24.40
2017-05-31T01:00:09.499Z,26.80
2017-05-31T01:02:38.500Z,27.02
2017-05-31T01:05:07.533Z,28.68
2017-05-31T01:07:36.533Z,24.07
2017-05-31T01:10:05.518Z,28.42
2017-05-31T01:12:34.538Z,27.82
2017-05-31T01:15:03.534Z,28.92
2017-05-31T01:17:32.519Z,26.20
2017-05-31T01:20:01.554Z,25.02
2017-05-31T01:22:30.565Z,25.92
2017-05-31T01:24:59.566Z,25.10
2017-05-31T01:27:28.709Z,25.28
2017-05-31T01:29:57.699Z,29.07
2017-05-31T01:32:26.682Z,32.43
2017-05-31T01:34:55.713Z,28.03
2017-05-31T01:37:24.699Z,27.82
2017-05-31T01:39:53.691Z,26.38
2017-05-31T01:42:22.706Z,23.15
2017-05-31T01:44:51.698Z,25.47
2017-05-31T01:47:20.701Z,27.43
2017-05-31T01:49:49.714Z,24.10
2017-05-31T01:52:18.698Z,26.13
2017-05-31T01:54:47.686Z,24.80
2017-05-31T01:57:16.721Z,26.52
2017-05-31T01:59:45.724Z,29.15
2017-05-31T02:02:14.725Z,25.07
2017-05-31T02:04:43.738Z,27.70
2017-05-31T02:07:12.747Z,24.50
2017-05-31T02:09:41.750Z,28.77
2017-05-31T02:12:10.785Z,30.05
2017-05-31T02:14:39.772Z,25.32
2017-05-31T02:17:08.777Z,28.37
2017-05-31T02:19:37.786Z,26.56
2017-05-31T02:22:06.792Z,25.48
2017-05-31T02:24:35.774Z,26.33
2017-05-31T02:27:04.804Z,23.45
2017-05-31T02:29:33.809Z,23.45
2017-05-31T02:32:02.790Z,24.57
2017-05-31T02:34:31.821Z,22.55
2017-05-31T02:37:00.853Z,24.85
2017-05-31T02:39:29.858Z,22.85
2017-05-31T02:41:58.889Z,25.28
2017-05-31T02:44:27.896Z,22.95
2017-05-31T02:46:56.878Z,22.77
2017-05-31T02:49:25.905Z,24.83
2017-05-31T02:51:54.891Z,25.98
2017-05-31T02:54:23.879Z,25.20
2017-05-31T02:56:52.897Z,21.30
2017-05-31T02:59:21.906Z,25.60
2017-05-31T03:01:50.906Z,21.33
2017-05-31T03:04:20.334Z,28.22
2017-05-31T03:06:49.337Z,31.35
2017-05-31T03:09:18.330Z,34.80
2017-05-31T03:11:47.361Z,30.02
2017-05-31T03:14:16.367Z,32.62
2017-05-31T03:16:45.378Z,30.57
2017-05-31T03:19:14.404Z,28.53
2017-05-31T03:21:43.402Z,30.47
2017-05-31T03:24:12.411Z,30.45
2017-05-31T03:26:41.432Z,27.20
2017-05-31T03:29:10.441Z,33.95
2017-05-31T03:31:39.429Z,29.97
2017-05-31T03:34:08.444Z,32.58
2017-05-31T03:36:37.443Z,30.93
2017-05-31T03:39:06.471Z,26.63
2017-05-31T03:41:35.507Z,27.35
2017-05-31T03:44:04.492Z,27.23
2017-05-31T03:46:33.498Z,27.17
2017-05-31T03:49:02.537Z,28.63
2017-05-31T03:51:31.548Z,29.50
2017-05-31T03:54:00.534Z,26.62
2017-05-31T03:56:29.571Z,25.42
2017-05-31T03:58:58.573Z,29.60
2017-05-31T04:01:27.578Z,30.08
2017-05-31T04:03:56.610Z,28.85
2017-05-31T04:06:25.618Z,30.57
2017-05-31T04:08:54.623Z,24.83
2017-05-31T04:11:23.639Z,25.73
2017-05-31T04:13:52.622Z,30.62
2017-05-31T04:16:21.615Z,30.28
2017-05-31T04:18:50.627Z,28.85
2017-05-31T04:21:19.609Z,30.37
2017-05-31T04:23:48.592Z,27.83
2017-05-31T04:26:17.631Z,31.32
2017-05-31T04:28:46.627Z,33.23
2017-05-31T04:31:15.613Z,26.50
2017-05-31T04:33:44.630Z,30.47
2017-05-31T04:36:13.625Z,27.95
2017-05-31T04:38:42.634Z,30.63
2017-05-31T04:41:11.654Z,28.15
2017-05-31T04:43:40.641Z,29.22
2017-05-31T04:46:09.622Z,28.28
2017-05-31T04:48:38.653Z,27.93
2017-05-31T04:51:07.641Z,27.77
2017-05-31T04:53:36.654Z,27.05
2017-05-31T04:56:05.666Z,26.93
2017-05-31T04:58:34.650Z,26.78
2017-05-31T05:01:03.637Z,24.18
2017-05-31T05:03:32.652Z,31.17
2017-05-31T05:06:01.639Z,21.95
2017-05-31T05:08:30.644Z,18.02
2017-05-31T05:10:59.663Z,18.48
2017-05-31T05:13:28.672Z,15.07
2017-05-31T05:15:57.659Z,12.45
2017-05-31T05:18:26.669Z,8.98
2017-05-31T05:20:55.642Z,8.38
2017-05-31T05:23:24.637Z,7.85
2017-05-31T05:25:53.646Z,6.38
2017-05-31T05:28:22.622Z,7.42
2017-05-31T05:30:51.626Z,12.88
2017-05-31T05:33:20.674Z,10.45
2017-05-31T05:35:49.676Z,8.52
2017-05-31T05:38:18.657Z,11.07
2017-05-31T05:40:47.682Z,9.03
2017-05-31T05:43:16.653Z,9.88
2017-05-31T05:45:45.632Z,7.93
2017-05-31T05:48:14.656Z,7.05
2017-05-31T05:50:43.662Z,10.62
2017-05-31T05:53:12.604Z,9.15
2017-05-31T05:55:41.615Z,9.07
2017-05-31T05:58:11.495Z,13.50
2017-05-31T06:00:40.436Z,5.13
2017-05-31T06:03:10.636Z,3.70
2017-05-31T06:05:39.589Z,7.67
2017-05-31T06:08:08.528Z,3.85
2017-05-31T06:10:37.482Z,3.67
2017-05-31T06:13:06.430Z,3.60
2017-05-31T06:15:35.378Z,4.22
2017-05-31T06:18:04.348Z,3.85
2017-05-31T06:20:33.276Z,5.22
2017-05-31T06:23:02.214Z,3.62
2017-05-31T06:25:31.181Z,3.07
2017-05-31T06:28:00.121Z,5.83
2017-05-31T06:30:29.039Z,4.20
2017-05-31T06:32:58.449Z,2.83
2017-05-31T06:35:27.417Z,3.88
2017-05-31T06:37:56.357Z,4.30
2017-05-31T06:40:25.306Z,2.58
2017-05-31T06:42:54.249Z,3.88
2017-05-31T06:45:23.169Z,3.27
2017-05-31T06:47:52.140Z,3.18
2017-05-31T06:50:21.070Z,3.33
2017-05-31T06:52:49.993Z,5.13
2017-05-31T06:55:18.969Z,4.04
2017-05-31T06:57:47.886Z,3.82
2017-05-31T07:00:16.806Z,5.33
2017-05-31T07:02:45.773Z,3.47
2017-05-31T07:05:14.699Z,3.35
2017-05-31T07:07:43.644Z,2.45
2017-05-31T07:10:12.602Z,2.50
2017-05-31T07:12:41.541Z,3.77
2017-05-31T07:15:10.462Z,2.77
2017-05-31T07:17:39.418Z,4.02
2017-05-31T07:20:08.374Z,2.97
2017-05-31T07:22:37.325Z,2.28
2017-05-31T07:25:06.296Z,3.12
2017-05-31T07:27:35.326Z,2.48
2017-05-31T07:30:04.272Z,3.93
2017-05-31T07:32:33.341Z,2.60
2017-05-31T07:35:02.266Z,3.20
2017-05-31T07:37:31.208Z,2.90
2017-05-31T07:40:00.181Z,3.23
2017-05-31T07:42:29.154Z,3.88
2017-05-31T07:44:58.093Z,2.57
2017-05-31T07:47:27.121Z,2.92
2017-05-31T07:49:56.185Z,2.78
2017-05-31T07:52:25.196Z,3.28
2017-05-31T07:54:54.168Z,2.97
2017-05-31T07:57:23.108Z,3.00
2017-05-31T07:59:52.027Z,3.53
2017-05-31T08:02:21.091Z,2.40
2017-05-31T08:04:50.036Z,2.55
2017-05-31T08:07:18.978Z,3.83
2017-05-31T08:09:47.950Z,3.68
2017-05-31T08:12:16.878Z,1.88
2017-05-31T08:14:45.821Z,4.10
2017-05-31T08:17:14.769Z,2.00
2017-05-31T08:19:43.705Z,3.75
2017-05-31T08:22:12.644Z,2.22
2017-05-31T08:24:41.851Z,2.47
2017-05-31T08:27:10.781Z,4.13
2017-05-31T08:29:39.709Z,2.10
2017-05-31T08:32:08.680Z,3.45
2017-05-31T08:34:37.628Z,2.32
2017-05-31T08:37:06.576Z,2.38
2017-05-31T08:39:35.542Z,3.28
2017-05-31T08:42:04.468Z,2.10
2017-05-31T08:44:33.422Z,2.00
2017-05-31T08:47:02.402Z,4.22
2017-05-31T08:49:31.347Z,1.60
2017-05-31T08:52:00.278Z,1.90
2017-05-31T08:54:29.240Z,2.60
2017-05-31T08:56:58.161Z,4.10
2017-05-31T08:59:27.182Z,1.74
2017-05-31T09:01:56.166Z,3.76
2017-05-31T09:04:25.120Z,1.86
2017-05-31T09:06:54.061Z,2.42
2017-05-31T09:09:23.016Z,3.54
2017-05-31T09:11:51.937Z,2.50
2017-05-31T09:14:20.892Z,3.80
2017-05-31T09:16:49.860Z,2.18
2017-05-31T09:19:18.800Z,3.34
2017-05-31T09:21:47.734Z,2.08
2017-05-31T09:24:16.705Z,4.96
2017-05-31T09:26:45.626Z,2.56
2017-05-31T09:29:14.540Z,6.10
2017-05-31T09:31:43.499Z,2.60
2017-05-31T09:34:12.421Z,2.50
2017-05-31T09:36:41.345Z,3.92
2017-05-31T09:39:10.317Z,2.72
2017-05-31T09:41:39.242Z,7.12
2017-05-31T09:44:08.164Z,4.42
2017-05-31T09:46:37.121Z,4.74
2017-05-31T09:49:06.065Z,3.80
2017-05-31T09:51:35.001Z,2.80
2017-05-31T09:54:04.949Z,3.14
2017-05-31T09:56:33.888Z,4.28
2017-05-31T09:59:02.805Z,3.62
2017-05-31T10:01:31.753Z,3.26
2017-05-31T10:04:00.683Z,3.92
2017-05-31T10:06:29.601Z,2.72
2017-05-31T10:08:58.573Z,2.92
2017-05-31T10:11:27.514Z,3.12
2017-05-31T10:13:56.448Z,5.10
2017-05-31T10:16:25.413Z,4.44
2017-05-31T10:18:54.338Z,4.16
2017-05-31T10:21:23.274Z,5.00
2017-05-31T10:23:52.222Z,7.72
2017-05-31T10:26:21.164Z,5.28
2017-05-31T10:28:50.079Z,3.84
2017-05-31T10:31:19.026Z,2.82
2017-05-31T10:33:47.955Z,6.46
2017-05-31T10:36:16.907Z,10.04
2017-05-31T10:38:45.863Z,2.98
2017-05-31T10:41:14.811Z,5.28
2017-05-31T10:43:43.750Z,7.74
2017-05-31T10:46:12.720Z,5.16
2017-05-31T10:48:41.655Z,3.36
2017-05-31T10:51:10.592Z,4.42
2017-05-31T10:53:39.547Z,2.60
2017-05-31T10:56:08.474Z,3.76
2017-05-31T10:58:37.413Z,5.80
2017-05-31T11:01:06.389Z,8.56
2017-05-31T11:03:35.310Z,5.46
2017-05-31T11:06:04.254Z,5.02
2017-05-31T11:08:33.225Z,5.30
2017-05-31T11:11:02.142Z,5.92
2017-05-31T11:13:31.069Z,4.22
2017-05-31T11:16:00.058Z,3.30
2017-05-31T11:18:29.004Z,4.16
2017-05-31T11:20:57.944Z,3.74
2017-05-31T11:23:26.913Z,5.66
2017-05-31T11:25:55.834Z,6.76
2017-05-31T11:28:24.756Z,5.00
2017-05-31T11:30:53.728Z,7.12
2017-05-31T11:33:22.677Z,4.20
2017-05-31T11:35:51.620Z,6.27
2017-05-31T11:38:20.592Z,8.82
2017-05-31T11:40:49.537Z,5.33
2017-05-31T11:43:18.482Z,4.95
2017-05-31T11:45:47.467Z,8.90
2017-05-31T11:48:16.425Z,4.25
2017-05-31T11:50:45.372Z,7.67
2017-05-31T11:53:14.322Z,10.08
2017-05-31T11:55:43.269Z,8.58
2017-05-31T11:58:12.214Z,8.23
2017-05-31T12:00:41.185Z,8.83
2017-05-31T12:03:10.106Z,7.20
2017-05-31T12:05:39.059Z,6.60
2017-05-31T12:08:08.210Z,4.00
2017-05-31T12:10:37.153Z,7.53
2017-05-31T12:13:06.092Z,5.57
2017-05-31T12:15:35.061Z,4.78
2017-05-31T12:18:03.981Z,9.98
2017-05-31T12:20:32.924Z,4.68
2017-05-31T12:23:01.894Z,7.15
2017-05-31T12:25:30.838Z,5.03
2017-05-31T12:27:59.761Z,8.57
2017-05-31T12:30:28.733Z,5.05
2017-05-31T12:32:57.670Z,9.70
2017-05-31T12:35:26.598Z,7.55
2017-05-31T12:37:55.582Z,9.67
2017-05-31T12:40:24.559Z,6.98
2017-05-31T12:42:53.489Z,5.87
2017-05-31T12:45:22.457Z,5.58
2017-05-31T12:47:51.402Z,10.10
2017-05-31T12:50:20.327Z,10.75
2017-05-31T12:52:49.303Z,5.72
2017-05-31T12:55:18.242Z,7.60
2017-05-31T12:57:47.178Z,6.93
2017-05-31T13:00:16.126Z,4.40
2017-05-31T13:02:45.079Z,9.13
2017-05-31T13:05:14.022Z,5.38
2017-05-31T13:07:42.977Z,5.23
2017-05-31T13:10:11.900Z,4.38
2017-05-31T13:12:40.842Z,5.73
2017-05-31T13:15:09.813Z,5.52
2017-05-31T13:17:38.730Z,7.10
2017-05-31T13:20:07.652Z,8.80
2017-05-31T13:22:36.606Z,8.30
2017-05-31T13:25:05.528Z,4.85
2017-05-31T13:27:34.450Z,6.72
2017-05-31T13:30:03.420Z,7.02
2017-05-31T13:32:32.343Z,6.47
2017-05-31T13:35:01.259Z,6.03
2017-05-31T13:37:30.231Z,7.92
2017-05-31T13:39:59.172Z,11.97
2017-05-31T13:42:28.101Z,7.83
2017-05-31T13:44:57.083Z,11.08
2017-05-31T13:47:26.030Z,6.92
2017-05-31T13:49:54.968Z,9.03
2017-05-31T13:52:23.914Z,4.52
2017-05-31T13:54:52.856Z,12.97
2017-05-31T13:57:21.800Z,6.25
2017-05-31T13:59:50.779Z,4.33
2017-05-31T14:02:19.698Z,15.12
2017-05-31T14:04:48.637Z,5.87
2017-05-31T14:07:17.587Z,7.03
2017-05-31T14:09:46.522Z,7.33
2017-05-31T14:12:15.442Z,10.12
2017-05-31T14:14:44.424Z,6.37
2017-05-31T14:17:13.364Z,5.72
2017-05-31T14:19:42.304Z,5.93
2017-05-31T14:22:11.258Z,8.82
2017-05-31T14:24:40.193Z,4.55
2017-05-31T14:27:09.123Z,8.25
2017-05-31T14:29:38.103Z,4.52
2017-05-31T14:32:07.028Z,6.93
2017-05-31T14:34:35.950Z,3.75
2017-05-31T14:37:04.906Z,6.77
2017-05-31T14:39:33.831Z,7.83
2017-05-31T14:42:02.773Z,6.13
2017-05-31T14:44:31.721Z,5.40
2017-05-31T14:47:00.641Z,6.80
2017-05-31T14:49:29.581Z,9.38
2017-05-31T14:51:58.565Z,8.05
2017-05-31T14:54:27.491Z,7.42
2017-05-31T14:56:56.419Z,10.02
2017-05-31T14:59:25.373Z,8.20
2017-05-31T15:01:54.310Z,8.28
2017-05-31T15:04:23.242Z,4.83
2017-05-31T15:06:52.206Z,10.70
2017-05-31T15:09:21.150Z,7.73
2017-05-31T15:11:50.081Z,12.30
2017-05-31T15:14:19.046Z,6.08
2017-05-31T15:16:47.984Z,6.50
2017-05-31T15:19:16.921Z,6.87
2017-05-31T15:21:45.874Z,7.53
2017-05-31T15:24:14.802Z,10.17
2017-05-31T15:26:43.753Z,14.23
2017-05-31T15:29:12.709Z,8.57
2017-05-31T15:31:41.635Z,11.47
2017-05-31T15:34:10.577Z,12.98
2017-05-31T15:36:39.556Z,11.27
2017-05-31T15:39:08.479Z,7.25
2017-05-31T15:41:37.421Z,9.40
2017-05-31T15:44:06.372Z,7.10
2017-05-31T15:46:35.291Z,9.02
2017-05-31T15:49:04.280Z,6.52
2017-05-31T15:51:33.245Z,8.78
2017-05-31T15:54:02.166Z,8.77
2017-05-31T15:56:31.108Z,9.93
2017-05-31T15:59:00.066Z,9.68
2017-05-31T16:01:29.005Z,7.32
2017-05-31T16:03:57.947Z,10.72
2017-05-31T16:06:26.898Z,5.23
2017-05-31T16:08:55.826Z,10.63
2017-05-31T16:11:24.769Z,11.13
2017-05-31T16:13:53.717Z,11.72
2017-05-31T16:16:22.646Z,6.13
2017-05-31T16:18:51.589Z,5.57
2017-05-31T16:21:20.538Z,6.77
2017-05-31T16:23:49.469Z,7.00
2017-05-31T16:26:18.408Z,7.35
2017-05-31T16:28:47.393Z,7.50
2017-05-31T16:31:16.313Z,5.67
2017-05-31T16:33:45.281Z,12.82
2017-05-31T16:36:14.238Z,8.75
2017-05-31T16:38:43.164Z,10.15
2017-05-31T16:41:12.113Z,7.83
2017-05-31T16:43:41.081Z,4.90
2017-05-31T16:46:10.028Z,12.28
2017-05-31T16:48:38.971Z,4.88
2017-05-31T16:51:07.917Z,6.92
2017-05-31T16:53:36.841Z,11.38
2017-05-31T16:56:05.780Z,10.20
2017-05-31T16:58:34.750Z,10.27
2017-05-31T17:01:03.671Z,6.18
2017-05-31T17:03:32.589Z,11.98
2017-05-31T17:06:01.572Z,13.18
2017-05-31T17:08:30.516Z,6.45
2017-05-31T17:10:59.444Z,5.92
2017-05-31T17:13:28.410Z,7.18
2017-05-31T17:15:57.360Z,13.03
2017-05-31T17:18:25.532Z,11.10
2017-05-31T17:20:54.504Z,10.48
2017-05-31T17:23:23.426Z,9.70
2017-05-31T17:25:52.345Z,4.30
2017-05-31T17:28:21.324Z,13.00
2017-05-31T17:30:50.254Z,4.52
2017-05-31T17:33:19.196Z,7.62
2017-05-31T17:35:48.146Z,8.18
2017-05-31T17:38:17.086Z,11.45
2017-05-31T17:40:46.010Z,8.53
2017-05-31T17:43:14.980Z,12.60
2017-05-31T17:45:43.944Z,13.95
2017-05-31T17:48:12.869Z,6.60
2017-05-31T17:50:42.290Z,9.92
2017-05-31T17:53:11.417Z,10.27
2017-05-31T17:55:40.352Z,14.28
2017-05-31T17:58:09.313Z,11.67
2017-05-31T18:00:38.258Z,21.48
2017-05-31T18:03:07.191Z,12.23
2017-05-31T18:05:36.146Z,11.47
2017-05-31T18:08:05.066Z,9.70
2017-05-31T18:10:33.994Z,25.83
2017-05-31T18:13:02.964Z,23.73
2017-05-31T18:15:31.913Z,15.93
2017-05-31T18:18:00.860Z,9.30
2017-05-31T18:20:29.822Z,12.40
2017-05-31T18:22:58.772Z,12.82
2017-05-31T18:25:27.686Z,8.45
2017-05-31T18:27:56.638Z,10.43
2017-05-31T18:30:25.578Z,8.68
2017-05-31T18:32:54.494Z,9.75
2017-05-31T18:35:23.475Z,9.53
2017-05-31T18:37:52.416Z,7.52
2017-05-31T18:40:21.341Z,10.88
2017-05-31T18:42:50.312Z,13.70
2017-05-31T18:45:19.684Z,8.83
2017-05-31T18:47:48.603Z,9.32
2017-05-31T18:50:17.549Z,12.62
2017-05-31T18:52:46.517Z,16.45
2017-05-31T18:55:15.447Z,23.97
2017-05-31T18:57:44.443Z,10.53
2017-05-31T19:00:13.375Z,17.35
2017-05-31T19:02:42.317Z,10.93
2017-05-31T19:05:11.278Z,14.83
2017-05-31T19:07:40.198Z,8.22
2017-05-31T19:10:09.139Z,15.22
2017-05-31T19:12:38.109Z,13.78
2017-05-31T19:15:07.035Z,9.65
2017-05-31T19:17:35.965Z,13.10
2017-05-31T19:20:04.955Z,19.37
2017-05-31T19:22:33.901Z,15.97
2017-05-31T19:25:02.852Z,12.50
2017-05-31T19:27:31.945Z,17.62
2017-05-31T19:30:00.917Z,16.10
2017-05-31T19:32:30.139Z,16.90
2017-05-31T19:34:59.120Z,11.33
2017-05-31T19:37:28.042Z,13.55
2017-05-31T19:39:56.992Z,17.95
2017-05-31T19:42:26.067Z,24.57
2017-05-31T19:44:55.009Z,17.93
2017-05-31T19:47:24.015Z,15.63
2017-05-31T19:49:52.978Z,7.52
2017-05-31T19:52:21.958Z,9.50
2017-05-31T19:54:50.886Z,16.20
2017-05-31T19:57:19.863Z,12.72
2017-05-31T19:59:48.791Z,17.37
2017-05-31T20:02:17.737Z,13.07
2017-05-31T20:04:46.709Z,7.92
2017-05-31T20:07:15.629Z,11.95
2017-05-31T20:09:44.573Z,10.47
2017-05-31T20:12:13.577Z,9.53
2017-05-31T20:14:42.936Z,11.50
2017-05-31T20:17:12.131Z,8.55
2017-05-31T20:19:41.118Z,13.42
2017-05-31T20:22:10.085Z,8.78
2017-05-31T20:24:39.041Z,16.65
2017-05-31T20:27:08.011Z,11.88
2017-05-31T20:29:37.223Z,14.93
2017-05-31T20:32:06.274Z,20.03
2017-05-31T20:34:35.242Z,16.12
2017-05-31T20:37:04.350Z,12.43
2017-05-31T20:39:33.278Z,9.47
2017-05-31T20:42:02.316Z,15.70
2017-05-31T20:44:31.306Z,13.12
2017-05-31T20:47:00.369Z,11.75
2017-05-31T20:49:29.414Z,12.88
2017-05-31T20:51:58.352Z,21.98
2017-05-31T20:54:27.330Z,13.55
2017-05-31T20:56:56.365Z,15.73
2017-05-31T20:59:25.331Z,16.10
2017-05-31T21:01:54.289Z,18.72
2017-05-31T21:04:23.284Z,14.35
2017-05-31T21:06:52.234Z,22.78
2017-05-31T21:09:21.189Z,13.67
2017-05-31T21:11:50.165Z,14.72
2017-05-31T21:14:19.113Z,20.62
2017-05-31T21:16:48.161Z,13.07
2017-05-31T21:19:17.172Z,21.82
2017-05-31T21:21:46.136Z,14.82
2017-05-31T21:24:15.076Z,11.83
2017-05-31T21:26:44.033Z,16.22
2017-05-31T21:29:12.981Z,10.07
2017-05-31T21:31:41.932Z,12.53
2017-05-31T21:34:10.891Z,12.08
2017-05-31T21:36:39.813Z,21.28
2017-05-31T21:39:08.752Z,16.60
2017-05-31T21:41:37.718Z,14.50
2017-05-31T21:44:06.669Z,19.48
2017-05-31T21:46:35.613Z,22.27
2017-05-31T21:49:04.582Z,9.92
2017-05-31T21:51:33.505Z,15.82
2017-05-31T21:54:02.431Z,13.85
2017-05-31T21:56:31.381Z,14.72
2017-05-31T21:59:00.301Z,17.13
2017-05-31T22:01:29.231Z,13.17
2017-05-31T22:03:58.213Z,17.12
2017-05-31T22:06:27.155Z,12.93
2017-05-31T22:08:56.097Z,14.55
2017-05-31T22:11:25.058Z,16.37
2017-05-31T22:13:54.070Z,13.97
2017-05-31T22:16:22.997Z,16.67
2017-05-31T22:18:51.976Z,10.75
2017-05-31T22:21:20.897Z,12.58
2017-05-31T22:23:49.830Z,15.43
2017-05-31T22:26:18.795Z,16.78
2017-05-31T22:28:47.725Z,10.53
2017-05-31T22:31:16.645Z,17.28
2017-05-31T22:33:45.621Z,10.98
2017-05-31T22:36:14.555Z,12.17
2017-05-31T22:38:43.478Z,14.53
2017-05-31T22:41:12.461Z,14.00
2017-05-31T22:43:41.407Z,18.37
2017-05-31T22:46:10.327Z,15.22
2017-05-31T22:48:39.305Z,15.03
2017-05-31T22:51:08.238Z,11.87
2017-05-31T22:53:37.163Z,18.90
2017-05-31T22:56:06.141Z,12.10
2017-05-31T22:58:36.249Z,13.25
2017-05-31T23:01:05.193Z,11.90
2017-05-31T23:03:34.172Z,17.70
2017-05-31T23:06:03.117Z,18.90
2017-05-31T23:08:32.061Z,21.15
2017-05-31T23:11:01.015Z,11.37
2017-05-31T23:13:29.941Z,9.90
2017-05-31T23:15:58.875Z,13.42
2017-05-31T23:18:27.874Z,17.93
2017-05-31T23:20:56.797Z,17.98
2017-05-31T23:23:25.721Z,8.55
2017-05-31T23:25:54.688Z,14.77
2017-05-31T23:28:23.635Z,27.20
2017-05-31T23:30:52.594Z,15.75
2017-05-31T23:33:21.545Z,10.35
2017-05-31T23:35:50.494Z,13.10
2017-05-31T23:38:19.439Z,10.68
2017-05-31T23:40:48.404Z,21.05
2017-05-31T23:43:17.327Z,19.25
2017-05-31T23:45:46.272Z,18.45
2017-05-31T23:48:15.242Z,14.90
2017-05-31T23:50:44.178Z,16.28
2017-05-31T23:53:13.105Z,15.57
2017-05-31T23:55:42.115Z,12.58
2017-05-31T23:58:11.041Z,18.53
